createdAt,value
2018-01-13T08:16:07.112Z,1.70
2018-01-13T08:18:36.429Z,1.70
2018-01-13T08:21:05.008Z,1.70
2018-01-13T08:23:34.320Z,1.80
2018-01-13T08:26:03.640Z,1.80
2018-01-13T08:28:32.215Z,1.80
2018-01-13T08:31:01.562Z,1.90
2018-01-13T08:33:30.141Z,1.90
2018-01-13T08:35:58.741Z,1.90
2018-01-13T08:38:27.321Z,2.00
2018-01-13T08:40:55.892Z,2.00
2018-01-13T08:43:24.479Z,2.10
2018-01-13T08:45:53.072Z,2.10
2018-01-13T08:48:21.635Z,2.20
2018-01-13T08:50:50.218Z,2.30
2018-01-13T08:53:18.799Z,2.40
2018-01-13T08:55:47.389Z,2.50
2018-01-13T08:58:15.804Z,2.60
2018-01-13T09:00:44.212Z,2.80
2018-01-13T09:03:12.618Z,2.90
2018-01-13T09:05:41.082Z,3.00
2018-01-13T09:08:09.492Z,3.10
2018-01-13T09:10:38.049Z,3.10
2018-01-13T09:13:06.623Z,3.20
2018-01-13T09:15:35.219Z,3.30
2018-01-13T09:18:03.841Z,3.40
2018-01-13T09:20:32.428Z,3.50
2018-01-13T09:23:01.012Z,3.60
2018-01-13T09:25:29.574Z,3.70
2018-01-13T09:27:58.143Z,3.70
2018-01-13T09:30:26.761Z,3.80
2018-01-13T09:32:56.194Z,3.90
2018-01-13T09:35:24.760Z,3.90
2018-01-13T09:37:53.344Z,3.90
2018-01-13T09:40:21.904Z,4.00
2018-01-13T09:42:50.479Z,4.00
2018-01-13T09:45:19.049Z,4.10
2018-01-13T09:47:47.609Z,4.20
2018-01-13T09:50:16.280Z,4.30
2018-01-13T09:52:44.864Z,4.40
2018-01-13T09:55:13.428Z,4.40
2018-01-13T09:57:42.784Z,4.40
2018-01-13T10:00:12.059Z,4.30
2018-01-13T10:02:40.597Z,4.40
2018-01-13T10:05:09.201Z,4.60
2018-01-13T10:07:37.791Z,4.60
2018-01-13T10:10:07.100Z,4.80
2018-01-13T10:12:36.436Z,4.80
2018-01-13T10:15:05.046Z,4.80
2018-01-13T10:17:33.612Z,4.90
2018-01-13T10:20:02.287Z,5.00
2018-01-13T10:22:30.976Z,5.20
2018-01-13T10:24:59.597Z,5.30
2018-01-13T10:27:28.201Z,5.30
2018-01-13T10:29:56.859Z,5.30
2018-01-13T10:32:25.518Z,5.40
2018-01-13T10:34:54.111Z,5.40
2018-01-13T10:37:22.691Z,5.40
2018-01-13T10:39:51.263Z,5.50
2018-01-13T10:42:20.647Z,5.50
2018-01-13T10:44:49.237Z,5.50
2018-01-13T10:47:17.830Z,5.60
2018-01-13T10:49:46.387Z,5.70
2018-01-13T10:52:14.982Z,5.80
2018-01-13T10:54:43.777Z,5.90
2018-01-13T10:57:12.429Z,5.90
2018-01-13T10:59:40.737Z,6.10
2018-01-13T11:02:09.297Z,6.30
2018-01-13T11:04:37.935Z,6.40
2018-01-13T11:07:06.535Z,6.60
2018-01-13T11:09:38.020Z,6.60
2018-01-13T11:12:06.612Z,6.50
2018-01-13T11:14:44.669Z,6.50
2018-01-13T11:17:13.461Z,6.50
2018-01-13T11:19:42.040Z,6.60
2018-01-13T11:22:10.626Z,6.60
2018-01-13T11:24:39.183Z,6.60
2018-01-13T11:27:07.718Z,6.50
2018-01-13T11:29:37.088Z,6.60
2018-01-13T11:32:09.639Z,6.60
2018-01-13T11:34:38.208Z,6.60
2018-01-13T11:37:06.795Z,6.50
2018-01-13T11:39:35.374Z,6.50
2018-01-13T11:42:05.868Z,6.50
2018-01-13T11:44:34.458Z,6.40
2018-01-13T11:47:03.006Z,6.40
2018-01-13T11:49:31.625Z,6.30
2018-01-13T11:52:00.278Z,6.30
2018-01-13T11:54:30.913Z,6.40
2018-01-13T11:56:59.486Z,6.40
2018-01-13T11:59:28.050Z,6.40
2018-01-13T12:01:56.683Z,6.40
2018-01-13T12:04:25.316Z,6.30
2018-01-13T12:06:54.635Z,6.30
2018-01-13T12:09:23.213Z,6.30
2018-01-13T12:11:52.687Z,6.20
2018-01-13T12:14:21.278Z,6.10
2018-01-13T12:16:49.887Z,6.10
2018-01-13T12:19:19.191Z,6.20
2018-01-13T12:21:48.568Z,6.30
2018-01-13T12:24:17.193Z,6.30
2018-01-13T12:26:45.785Z,6.30
2018-01-13T12:29:14.367Z,6.40
2018-01-13T12:31:42.925Z,6.40
2018-01-13T12:34:12.422Z,6.60
2018-01-13T12:36:46.553Z,6.50
2018-01-13T12:39:15.129Z,6.50
2018-01-13T12:41:43.687Z,6.60
2018-01-13T12:44:12.291Z,6.60
2018-01-13T12:46:40.978Z,6.60
2018-01-13T12:49:09.561Z,6.60
2018-01-13T12:51:38.162Z,6.70
2018-01-13T12:54:06.760Z,6.60
2018-01-13T12:56:36.104Z,6.40
2018-01-13T12:59:06.732Z,6.40
2018-01-13T13:01:35.308Z,6.40
2018-01-13T13:04:03.892Z,6.40
2018-01-13T13:06:32.490Z,6.40
2018-01-13T13:09:01.089Z,6.40
2018-01-13T13:11:29.656Z,6.50
2018-01-13T13:13:58.284Z,6.40
2018-01-13T13:16:26.881Z,6.30
2018-01-13T13:18:55.484Z,6.30
2018-01-13T13:21:24.056Z,6.30
2018-01-13T13:23:52.645Z,6.20
2018-01-13T13:26:21.294Z,6.20
2018-01-13T13:28:49.883Z,6.10
2018-01-13T13:31:18.345Z,6.10
2018-01-13T13:33:46.919Z,6.10
2018-01-13T13:36:15.546Z,6.10
2018-01-13T13:38:43.814Z,6.10
2018-01-13T13:41:12.430Z,6.10
2018-01-13T13:43:41.011Z,6.10
2018-01-13T13:46:09.687Z,6.10
2018-01-13T13:48:38.264Z,6.10
2018-01-13T13:51:06.775Z,6.10
2018-01-13T13:53:35.351Z,6.00
2018-01-13T13:56:05.088Z,6.00
2018-01-13T13:58:33.645Z,6.00
2018-01-13T14:01:28.507Z,6.00
2018-01-13T14:03:43.633Z,6.00
2018-01-13T14:06:18.109Z,6.00
2018-01-13T14:08:49.752Z,6.00
2018-01-13T14:11:25.773Z,5.90
2018-01-13T14:13:54.343Z,5.90
2018-01-13T14:16:22.939Z,5.90
2018-01-13T14:18:51.543Z,5.80
2018-01-13T14:21:26.209Z,5.80
2018-01-13T14:23:54.783Z,5.80
2018-01-13T14:26:24.138Z,5.80
2018-01-13T14:28:54.744Z,5.70
2018-01-13T14:31:24.006Z,5.70
2018-01-13T14:33:52.557Z,5.70
2018-01-13T14:36:21.157Z,5.60
2018-01-13T14:38:49.731Z,5.60
2018-01-13T14:41:18.288Z,5.50
2018-01-13T14:43:46.922Z,5.50
2018-01-13T14:46:15.923Z,5.50
2018-01-13T14:48:44.570Z,5.50
2018-01-13T14:51:13.626Z,5.50
2018-01-13T14:53:43.083Z,5.40
2018-01-13T14:56:11.692Z,5.40
2018-01-13T14:58:40.276Z,5.40
2018-01-13T15:01:09.193Z,5.40
2018-01-13T15:03:37.813Z,5.30
2018-01-13T15:06:06.432Z,5.30
2018-01-13T15:08:35.022Z,5.30
2018-01-13T15:11:03.602Z,5.30
2018-01-13T15:13:32.271Z,5.30
2018-01-13T15:16:04.599Z,5.30
2018-01-13T15:18:33.951Z,5.20
2018-01-13T15:21:02.533Z,5.20
2018-01-13T15:23:31.147Z,5.20
2018-01-13T15:25:59.821Z,5.20
2018-01-13T15:28:28.414Z,5.20
2018-01-13T15:30:56.987Z,5.20
2018-01-13T15:33:25.683Z,5.20
2018-01-13T15:35:54.264Z,5.20
2018-01-13T15:38:22.827Z,5.10
2018-01-13T15:40:51.397Z,5.20
2018-01-13T15:43:20.750Z,5.10
2018-01-13T15:45:49.016Z,5.10
2018-01-13T15:48:17.615Z,5.10
2018-01-13T15:50:50.602Z,5.10
2018-01-13T15:53:19.403Z,5.10
2018-01-13T15:55:47.976Z,5.00
2018-01-13T15:58:17.942Z,5.00
2018-01-13T16:00:46.624Z,5.00
2018-01-13T16:03:15.189Z,5.00
2018-01-13T16:05:43.767Z,5.00
2018-01-13T16:08:12.357Z,4.90
2018-01-13T16:10:40.963Z,4.90
2018-01-13T16:13:10.617Z,4.90
2018-01-13T16:15:39.182Z,4.90
2018-01-13T16:18:08.541Z,4.90
2018-01-13T16:20:37.114Z,4.90
2018-01-13T16:23:05.720Z,4.80
2018-01-13T16:25:34.304Z,4.90
2018-01-13T16:28:02.887Z,4.80
2018-01-13T16:30:31.672Z,4.80
2018-01-13T16:33:00.267Z,4.80
2018-01-13T16:35:28.792Z,4.80
2018-01-13T16:37:57.397Z,4.80
2018-01-13T16:40:26.023Z,4.80
2018-01-13T16:42:55.695Z,4.80
2018-01-13T16:45:24.311Z,4.70
2018-01-13T16:47:52.913Z,4.80
2018-01-13T16:50:21.477Z,4.70
2018-01-13T16:52:50.082Z,4.70
2018-01-13T16:55:18.678Z,4.70
2018-01-13T16:57:47.322Z,4.70
2018-01-13T17:00:15.924Z,4.70
2018-01-13T17:02:44.504Z,4.70
2018-01-13T17:05:13.019Z,4.70
2018-01-13T17:07:41.592Z,4.70
2018-01-13T17:10:10.175Z,4.70
2018-01-13T17:12:38.752Z,4.70
2018-01-13T17:15:07.341Z,4.70
2018-01-13T17:17:35.942Z,4.70
2018-01-13T17:20:04.475Z,4.60
2018-01-13T17:22:33.035Z,4.60
2018-01-13T17:25:01.630Z,4.60
2018-01-13T17:27:30.924Z,4.60
2018-01-13T17:29:59.507Z,4.60
2018-01-13T17:32:28.079Z,4.60
2018-01-13T17:34:56.649Z,4.60
2018-01-13T17:37:25.228Z,4.50
2018-01-13T17:39:54.057Z,4.50
2018-01-13T17:42:22.653Z,4.50
2018-01-13T17:44:52.008Z,4.50
2018-01-13T17:47:20.608Z,4.50
2018-01-13T17:49:49.149Z,4.50
2018-01-13T17:52:17.753Z,4.50
2018-01-13T17:54:46.328Z,4.50
2018-01-13T17:57:14.878Z,4.50
2018-01-13T17:59:44.236Z,4.50
2018-01-13T18:02:12.820Z,4.40
2018-01-13T18:04:41.388Z,4.40
2018-01-13T18:07:09.975Z,4.50
2018-01-13T18:09:38.524Z,4.50
2018-01-13T18:12:07.108Z,4.40
2018-01-13T18:14:35.686Z,4.50
2018-01-13T18:17:04.292Z,4.50
2018-01-13T18:19:32.965Z,4.40
2018-01-13T18:22:01.563Z,4.50
2018-01-13T18:24:30.353Z,4.50
2018-01-13T18:26:58.922Z,4.40
2018-01-13T18:29:27.610Z,4.40
2018-01-13T18:31:56.205Z,4.40
2018-01-13T18:34:24.775Z,4.40
2018-01-13T18:36:53.391Z,4.40
2018-01-13T18:39:21.979Z,4.30
2018-01-13T18:41:50.513Z,4.30
2018-01-13T18:44:19.869Z,4.30
2018-01-13T18:46:54.824Z,4.30
2018-01-13T18:49:23.296Z,4.30
2018-01-13T18:51:51.903Z,4.30
2018-01-13T18:54:20.500Z,4.30
2018-01-13T18:56:49.170Z,4.30
2018-01-13T18:59:17.726Z,4.30
2018-01-13T19:01:47.070Z,4.30
2018-01-13T19:04:15.706Z,4.30
2018-01-13T19:06:44.317Z,4.30
2018-01-13T19:09:14.680Z,4.20
2018-01-13T19:11:43.243Z,4.20
2018-01-13T19:14:11.849Z,4.20
2018-01-13T19:16:41.205Z,4.20
2018-01-13T19:19:10.891Z,4.20
2018-01-13T19:21:40.074Z,4.20
2018-01-13T19:24:08.754Z,4.20
2018-01-13T19:26:37.390Z,4.20
2018-01-13T19:29:05.986Z,4.20
2018-01-13T19:31:34.551Z,4.20
2018-01-13T19:34:03.784Z,4.20
2018-01-13T19:36:32.488Z,4.10
2018-01-13T19:39:01.518Z,4.10
2018-01-13T19:44:24.023Z,4.10
2018-01-13T19:46:53.409Z,4.00
2018-01-13T19:49:21.963Z,4.00
2018-01-13T19:51:50.529Z,4.00
2018-01-13T19:54:29.418Z,4.00
2018-01-13T19:56:58.020Z,4.00
2018-01-13T19:59:27.592Z,4.00
2018-01-13T20:01:56.226Z,3.90
2018-01-13T20:04:32.473Z,3.90
2018-01-13T20:07:01.077Z,3.90
2018-01-13T20:09:33.967Z,3.90
2018-01-13T20:12:02.550Z,3.90
2018-01-13T20:14:31.094Z,3.90
2018-01-13T20:16:59.691Z,3.90
2018-01-13T20:19:28.335Z,3.80
2018-01-13T20:21:57.048Z,3.80
2018-01-13T20:24:25.613Z,3.80
2018-01-13T20:26:54.220Z,3.80
2018-01-13T20:29:22.803Z,3.80
2018-01-13T20:31:51.373Z,3.80
2018-01-13T20:34:19.965Z,3.80
2018-01-13T20:36:48.565Z,3.80
2018-01-13T20:39:17.155Z,3.80
2018-01-13T20:41:45.758Z,3.80
2018-01-13T20:44:14.325Z,3.80
2018-01-13T20:46:42.933Z,3.80
2018-01-13T20:49:11.532Z,3.80
2018-01-13T20:51:46.800Z,3.80
2018-01-13T20:54:15.377Z,3.70
2018-01-13T20:56:44.726Z,3.80
2018-01-13T20:59:13.315Z,3.70
2018-01-13T21:01:41.955Z,3.70
2018-01-13T21:04:10.557Z,3.70
2018-01-13T21:06:38.608Z,3.70
2018-01-13T21:09:07.257Z,3.70
2018-01-13T21:11:35.802Z,3.70
2018-01-13T21:14:04.473Z,3.70
2018-01-13T21:16:33.082Z,3.70
2018-01-13T21:19:01.677Z,3.70
2018-01-13T21:21:30.334Z,3.80
2018-01-13T21:23:59.791Z,3.80
2018-01-13T21:26:28.361Z,3.80
2018-01-13T21:28:56.953Z,3.80
2018-01-13T21:31:25.522Z,3.70
2018-01-13T21:33:54.106Z,3.70
2018-01-13T21:36:22.675Z,3.70
2018-01-13T21:38:51.280Z,3.70
2018-01-13T21:41:19.854Z,3.70
2018-01-13T21:43:48.456Z,3.70
2018-01-13T21:46:17.132Z,3.60
2018-01-13T21:48:45.531Z,3.60
2018-01-13T21:51:14.145Z,3.70
2018-01-13T21:53:42.750Z,3.70
2018-01-13T21:56:11.358Z,3.70
2018-01-13T21:58:39.964Z,3.70
2018-01-13T22:01:08.534Z,3.70
2018-01-13T22:03:37.857Z,3.60
2018-01-13T22:06:06.626Z,3.60
2018-01-13T22:08:35.200Z,3.60
2018-01-13T22:11:04.541Z,3.60
2018-01-13T22:13:40.663Z,3.60
2018-01-13T22:16:19.857Z,3.60
2018-01-13T22:18:48.448Z,3.50
2018-01-13T22:21:17.021Z,3.50
2018-01-13T22:23:45.538Z,3.50
2018-01-13T22:26:14.102Z,3.50
2018-01-13T22:28:42.668Z,3.50
2018-01-13T22:31:11.227Z,3.50
2018-01-13T22:33:40.609Z,3.40
2018-01-13T22:36:09.225Z,3.40
2018-01-13T22:38:37.777Z,3.40
2018-01-13T22:41:06.413Z,3.40
2018-01-13T22:43:35.753Z,3.40
2018-01-13T22:46:04.353Z,3.40
2018-01-13T22:48:32.949Z,3.40
2018-01-13T22:51:01.569Z,3.40
2018-01-13T22:53:30.109Z,3.30
2018-01-13T22:55:58.684Z,3.30
2018-01-13T22:58:27.260Z,3.30
2018-01-13T23:00:55.868Z,3.30
2018-01-13T23:03:24.485Z,3.30
2018-01-13T23:05:53.950Z,3.20
2018-01-13T23:08:22.546Z,3.20
2018-01-13T23:10:51.131Z,3.20
2018-01-13T23:13:23.744Z,3.20
2018-01-13T23:15:52.339Z,3.10
2018-01-13T23:18:20.918Z,3.10
2018-01-13T23:20:50.260Z,3.10
2018-01-13T23:23:25.813Z,3.10
2018-01-13T23:25:54.396Z,3.00
2018-01-13T23:28:22.984Z,3.00
2018-01-13T23:30:51.772Z,3.00
2018-01-13T23:33:20.384Z,3.00
2018-01-13T23:35:48.943Z,3.00
2018-01-13T23:38:17.515Z,3.00
2018-01-13T23:40:46.131Z,3.00
2018-01-13T23:43:14.656Z,3.00
2018-01-13T23:45:44.042Z,3.10
2018-01-13T23:48:12.626Z,3.00
2018-01-13T23:50:41.186Z,3.00
2018-01-13T23:53:09.844Z,3.00
2018-01-13T23:55:43.239Z,3.10
2018-01-13T23:58:11.854Z,3.00
